createdAt,value
2019-04-26T00:02:01.540Z,13.30
2019-04-26T00:04:30.432Z,13.30
2019-04-26T00:07:05.260Z,13.20
2019-04-26T00:09:38.977Z,13.10
2019-04-26T00:12:28.178Z,13.00
2019-04-26T00:15:12.449Z,13.00
2019-04-26T00:17:44.396Z,12.90
2019-04-26T00:20:13.072Z,12.80
2019-04-26T00:22:43.576Z,12.80
2019-04-26T00:25:12.469Z,12.70
2019-04-26T00:27:41.133Z,12.70
2019-04-26T00:30:12.097Z,12.60
2019-04-26T00:32:46.308Z,12.50
2019-04-26T00:35:16.513Z,12.50
2019-04-26T00:37:47.814Z,12.40
2019-04-26T00:40:16.523Z,12.30
2019-04-26T00:42:47.883Z,12.30
2019-04-26T00:45:19.398Z,12.20
2019-04-26T00:47:51.621Z,12.20
2019-04-26T00:50:21.299Z,12.10
2019-04-26T00:52:51.643Z,12.00
2019-04-26T00:55:21.949Z,12.00
2019-04-26T00:57:51.287Z,12.10
2019-04-26T01:00:19.951Z,12.00
2019-04-26T01:02:55.840Z,12.00
2019-04-26T01:05:25.244Z,12.00
2019-04-26T01:10:47.410Z,11.90
2019-04-26T01:13:16.440Z,11.90
2019-04-26T01:15:45.736Z,11.80
2019-04-26T01:18:18.655Z,11.70
2019-04-26T01:20:50.415Z,11.70
2019-04-26T01:23:21.220Z,11.60
2019-04-26T01:26:21.063Z,11.50
2019-04-26T01:29:11.314Z,11.50
2019-04-26T01:32:03.653Z,11.40
2019-04-26T01:34:38.054Z,11.40
2019-04-26T01:37:19.220Z,11.30
2019-04-26T01:39:53.003Z,11.30
2019-04-26T01:42:29.177Z,11.20
2019-04-26T01:45:15.656Z,11.20
2019-04-26T01:47:52.662Z,11.20
2019-04-26T01:50:25.244Z,11.10
2019-04-26T01:52:57.061Z,11.10
2019-04-26T01:55:29.179Z,11.00
2019-04-26T01:58:23.238Z,11.10
2019-04-26T02:00:56.278Z,11.00
2019-04-26T02:03:29.837Z,11.10
2019-04-26T02:05:58.848Z,11.10
2019-04-26T02:08:28.271Z,11.20
2019-04-26T02:10:59.085Z,11.20
2019-04-26T02:13:28.913Z,11.30
2019-04-26T02:15:57.517Z,11.30
2019-04-26T02:18:29.406Z,11.20
2019-04-26T02:21:24.608Z,11.20
2019-04-26T02:23:56.491Z,11.20
2019-04-26T02:26:43.224Z,11.10
2019-04-26T02:29:14.884Z,11.10
2019-04-26T02:31:48.747Z,11.10
2019-04-26T02:34:17.587Z,11.10
2019-04-26T02:36:57.622Z,11.10
2019-04-26T02:39:23.117Z,11.10
2019-04-26T02:42:14.196Z,11.10
2019-04-26T02:44:49.291Z,11.00
2019-04-26T02:47:40.378Z,11.00
2019-04-26T02:50:13.695Z,10.90
2019-04-26T02:53:02.703Z,10.90
2019-04-26T02:56:09.189Z,10.80
2019-04-26T02:58:40.829Z,10.80
2019-04-26T03:01:17.677Z,10.80
2019-04-26T03:03:41.477Z,10.60
2019-04-26T03:06:10.294Z,10.60
2019-04-26T03:08:42.842Z,10.50
2019-04-26T03:11:17.231Z,10.40
2019-04-26T03:13:50.231Z,10.40
2019-04-26T03:16:39.245Z,10.30
2019-04-26T03:19:12.873Z,10.30
2019-04-26T03:22:00.878Z,10.30
2019-04-26T03:24:51.903Z,10.30
2019-04-26T03:27:39.346Z,10.20
2019-04-26T03:30:42.378Z,10.20
2019-04-26T03:33:20.167Z,10.10
2019-04-26T03:36:15.255Z,10.20
2019-04-26T03:42:19.346Z,10.10
2019-04-26T03:45:07.110Z,10.00
2019-04-26T03:47:41.984Z,10.00
2019-04-26T03:50:18.259Z,10.00
2019-04-26T03:56:09.447Z,9.80
2019-04-26T03:58:59.242Z,9.80
2019-04-26T04:01:32.449Z,9.80
2019-04-26T04:07:04.832Z,9.70
2019-04-26T04:09:35.890Z,9.70
2019-04-26T04:12:22.185Z,9.70
2019-04-26T04:17:50.216Z,9.70
2019-04-26T04:20:59.319Z,9.70
2019-04-26T04:23:33.705Z,9.80
2019-04-26T04:26:05.382Z,9.80
2019-04-26T04:28:53.162Z,9.90
2019-04-26T04:32:03.678Z,9.90
2019-04-26T04:34:42.083Z,9.90
2019-04-26T04:37:15.570Z,10.10
2019-04-26T04:40:09.419Z,10.20
2019-04-26T04:43:04.239Z,10.30
2019-04-26T04:46:07.346Z,10.50
2019-04-26T04:48:50.738Z,10.60
2019-04-26T04:51:57.387Z,10.80
2019-04-26T04:55:06.669Z,10.90
2019-04-26T05:01:13.008Z,11.30
2019-04-26T05:03:56.322Z,11.50
2019-04-26T05:06:53.497Z,11.70
2019-04-26T05:12:30.800Z,12.30
2019-04-26T05:18:38.270Z,12.90
2019-04-26T05:21:20.555Z,13.10
2019-04-26T05:24:13.267Z,13.30
2019-04-26T05:26:52.079Z,13.20
2019-04-26T05:29:42.055Z,13.00
2019-04-26T05:35:41.814Z,12.50
2019-04-26T05:38:32.957Z,12.50
2019-04-26T05:41:45.878Z,12.40
2019-04-26T05:44:43.501Z,12.50
2019-04-26T05:48:04.251Z,12.50
2019-04-26T05:50:35.861Z,12.40
2019-04-26T05:53:34.468Z,12.40
2019-04-26T05:56:25.059Z,12.30
2019-04-26T05:59:18.476Z,12.40
2019-04-26T06:02:18.628Z,12.30
2019-04-26T06:05:19.019Z,12.40
2019-04-26T06:07:58.524Z,12.40
2019-04-26T06:10:43.622Z,12.40
2019-04-26T06:13:47.887Z,12.60
2019-04-26T06:16:57.648Z,12.60
2019-04-26T06:20:02.552Z,12.50
2019-04-26T06:23:08.729Z,12.40
2019-04-26T06:25:46.773Z,12.40
2019-04-26T06:28:37.499Z,12.50
2019-04-26T06:31:14.517Z,12.60
2019-04-26T06:33:51.748Z,12.60
2019-04-26T06:36:24.803Z,12.60
2019-04-26T06:39:21.585Z,12.60
2019-04-26T06:42:11.372Z,12.70
2019-04-26T06:48:03.936Z,12.80
2019-04-26T06:50:52.124Z,12.70
2019-04-26T06:57:15.336Z,12.60
2019-04-26T07:00:09.758Z,12.50
2019-04-26T07:03:08.061Z,12.60
2019-04-26T07:05:42.799Z,12.60
2019-04-26T07:08:59.389Z,12.60
2019-04-26T07:11:57.100Z,12.50
2019-04-26T07:17:47.817Z,12.50
2019-04-26T07:20:19.601Z,12.60
2019-04-26T07:26:25.312Z,12.70
2019-04-26T07:29:18.696Z,12.80
2019-04-26T07:32:14.698Z,12.90
2019-04-26T07:38:19.353Z,13.10
2019-04-26T07:41:15.969Z,13.10
2019-04-26T07:47:24.519Z,13.10
2019-04-26T07:50:18.563Z,13.10
2019-04-26T07:53:05.469Z,13.10
2019-04-26T07:59:30.252Z,13.10
2019-04-26T08:02:23.176Z,13.20
2019-04-26T08:05:03.309Z,13.10
2019-04-26T08:07:38.287Z,13.10
2019-04-26T08:10:16.111Z,12.90
2019-04-26T08:12:49.043Z,13.00
2019-04-26T08:15:38.992Z,13.00
2019-04-26T08:18:15.270Z,13.10
2019-04-26T08:20:50.598Z,13.30
2019-04-26T08:23:39.513Z,13.60
2019-04-26T08:26:02.684Z,13.70
2019-04-26T08:28:37.719Z,13.70
2019-04-26T08:31:09.472Z,13.80
2019-04-26T08:33:49.893Z,13.80
2019-04-26T08:36:23.309Z,13.70
2019-04-26T08:38:54.181Z,13.60
2019-04-26T08:41:25.678Z,13.50
2019-04-26T08:44:21.407Z,13.30
2019-04-26T08:46:56.953Z,13.40
2019-04-26T08:49:30.916Z,13.40
2019-04-26T08:52:13.699Z,13.30
2019-04-26T08:57:28.046Z,13.20
2019-04-26T09:00:06.636Z,13.20
2019-04-26T09:02:39.495Z,13.20
2019-04-26T09:05:34.088Z,13.20
2019-04-26T09:08:08.220Z,13.20
2019-04-26T09:10:48.711Z,13.20
2019-04-26T09:13:25.303Z,13.20
2019-04-26T09:16:13.712Z,13.20
2019-04-26T09:18:53.121Z,13.40
2019-04-26T09:21:24.751Z,13.50
2019-04-26T09:24:14.308Z,13.50
2019-04-26T09:26:46.681Z,13.40
2019-04-26T09:29:35.776Z,13.30
2019-04-26T09:32:12.135Z,13.40
2019-04-26T09:34:43.889Z,13.40
2019-04-26T09:37:14.149Z,13.40
2019-04-26T09:39:48.761Z,13.30
2019-04-26T09:42:32.019Z,13.30
2019-04-26T09:45:18.788Z,13.20
2019-04-26T09:48:10.684Z,13.20
2019-04-26T09:50:42.536Z,13.10
2019-04-26T09:53:17.561Z,13.00
2019-04-26T09:55:54.778Z,13.00
2019-04-26T09:58:26.924Z,13.10
2019-04-26T10:01:00.234Z,13.00
2019-04-26T10:03:38.084Z,13.00
2019-04-26T10:06:19.525Z,13.10
2019-04-26T10:08:53.412Z,12.90
2019-04-26T10:11:31.498Z,13.00
2019-04-26T10:14:01.943Z,12.90
2019-04-26T10:16:46.305Z,13.00
2019-04-26T10:19:17.674Z,13.00
2019-04-26T10:21:52.416Z,12.90
2019-04-26T10:24:29.681Z,12.90
2019-04-26T10:27:05.453Z,13.00
2019-04-26T10:29:34.304Z,13.00
2019-04-26T10:32:10.023Z,13.20
2019-04-26T10:34:42.807Z,13.30
2019-04-26T10:37:39.145Z,13.30
2019-04-26T10:40:05.199Z,13.10
2019-04-26T10:42:37.140Z,13.00
2019-04-26T10:45:16.304Z,12.80
2019-04-26T10:47:50.712Z,12.70
2019-04-26T10:50:32.915Z,12.60
2019-04-26T10:53:02.632Z,12.60
2019-04-26T10:55:51.895Z,12.70
2019-04-26T10:58:26.923Z,12.70
2019-04-26T11:01:10.976Z,12.70
2019-04-26T11:03:48.871Z,12.80
2019-04-26T11:06:29.060Z,12.60
2019-04-26T11:09:00.837Z,12.60
2019-04-26T11:11:39.590Z,12.50
2019-04-26T11:14:24.458Z,12.40
2019-04-26T11:16:56.997Z,12.30
2019-04-26T11:19:36.603Z,12.20
2019-04-26T11:22:29.174Z,12.20
2019-04-26T11:24:53.898Z,12.20
2019-04-26T11:27:21.267Z,12.10
2019-04-26T11:29:54.083Z,12.00
2019-04-26T11:32:24.902Z,11.90
2019-04-26T11:34:54.560Z,11.90
2019-04-26T11:37:35.581Z,11.90
2019-04-26T11:40:10.249Z,11.90
2019-04-26T11:42:41.847Z,11.90
2019-04-26T11:45:14.763Z,12.00
2019-04-26T11:47:55.831Z,12.00
2019-04-26T11:50:21.096Z,12.00
2019-04-26T11:52:56.098Z,11.90
2019-04-26T11:55:25.333Z,11.90
2019-04-26T11:57:57.416Z,11.80
2019-04-26T12:00:27.932Z,11.60
2019-04-26T12:02:59.777Z,11.50
2019-04-26T12:08:41.404Z,11.50
2019-04-26T12:11:18.279Z,11.40
2019-04-26T12:13:46.211Z,11.40
2019-04-26T12:16:18.877Z,11.30
2019-04-26T12:18:52.566Z,11.20
2019-04-26T12:21:22.716Z,11.30
2019-04-26T12:23:54.923Z,11.20
2019-04-26T12:26:27.457Z,11.40
2019-04-26T12:28:59.447Z,11.50
2019-04-26T12:31:29.541Z,11.50
2019-04-26T12:34:00.077Z,11.50
2019-04-26T12:36:53.052Z,11.40
2019-04-26T12:39:25.111Z,11.40
2019-04-26T12:41:59.623Z,11.50
2019-04-26T12:44:39.130Z,11.40
2019-04-26T12:47:20.967Z,11.40
2019-04-26T12:49:54.534Z,11.40
2019-04-26T12:52:31.031Z,11.40
2019-04-26T12:55:04.257Z,11.30
2019-04-26T12:57:36.589Z,11.30
2019-04-26T13:00:08.255Z,11.30
2019-04-26T13:02:50.247Z,11.30
2019-04-26T13:05:18.976Z,11.40
2019-04-26T13:07:49.703Z,11.50
2019-04-26T13:13:32.497Z,11.60
2019-04-26T13:16:07.155Z,11.50
2019-04-26T13:18:41.222Z,11.50
2019-04-26T13:21:10.441Z,11.50
2019-04-26T13:23:50.990Z,11.50
2019-04-26T13:26:30.328Z,11.40
2019-04-26T13:29:01.205Z,11.40
2019-04-26T13:31:34.183Z,11.40
2019-04-26T13:34:04.625Z,11.30
2019-04-26T13:36:35.510Z,11.40
2019-04-26T13:39:17.925Z,11.50
2019-04-26T13:42:02.944Z,11.50
2019-04-26T13:44:44.381Z,11.60
2019-04-26T13:47:18.887Z,11.70
2019-04-26T13:50:07.325Z,11.70
2019-04-26T13:52:37.468Z,11.70
2019-04-26T13:55:07.623Z,11.70
2019-04-26T13:57:44.451Z,11.70
2019-04-26T14:00:25.058Z,11.80
2019-04-26T14:03:03.875Z,11.80
2019-04-26T14:05:37.611Z,11.80
2019-04-26T14:08:29.672Z,11.80
2019-04-26T14:11:04.185Z,11.80
2019-04-26T14:13:38.718Z,11.80
2019-04-26T14:16:21.257Z,11.90
2019-04-26T14:18:53.578Z,11.80
2019-04-26T14:21:33.185Z,11.70
2019-04-26T14:24:24.068Z,11.70
2019-04-26T14:27:03.820Z,11.60
2019-04-26T14:29:39.754Z,11.60
2019-04-26T14:32:13.962Z,11.70
2019-04-26T14:34:48.141Z,11.70
2019-04-26T14:37:18.285Z,11.80
2019-04-26T14:39:51.131Z,11.80
2019-04-26T14:42:33.092Z,11.80
2019-04-26T14:45:02.308Z,11.70
2019-04-26T14:47:46.805Z,11.90
2019-04-26T14:50:13.972Z,11.90
2019-04-26T14:52:47.405Z,11.80
2019-04-26T14:55:16.500Z,11.80
2019-04-26T14:57:53.998Z,11.80
2019-04-26T15:00:31.319Z,11.80
2019-04-26T15:03:12.332Z,11.80
2019-04-26T15:05:55.571Z,11.80
2019-04-26T15:08:27.339Z,11.90
2019-04-26T15:11:03.943Z,11.80
2019-04-26T15:13:40.313Z,11.80
2019-04-26T15:16:10.411Z,11.90
2019-04-26T15:18:37.486Z,11.90
2019-04-26T15:21:12.890Z,11.90
2019-04-26T15:23:47.223Z,11.80
2019-04-26T15:26:27.432Z,11.70
2019-04-26T15:28:55.246Z,11.70
2019-04-26T15:31:25.772Z,11.70
2019-04-26T15:33:56.025Z,11.70
2019-04-26T15:36:25.227Z,11.60
2019-04-26T15:39:33.129Z,11.60
2019-04-26T15:42:06.891Z,11.50
2019-04-26T15:47:52.439Z,11.60
2019-04-26T15:50:27.811Z,11.60
2019-04-26T15:52:56.897Z,11.60
2019-04-26T15:55:33.796Z,11.50
2019-04-26T15:58:08.218Z,11.40
2019-04-26T16:00:32.732Z,11.30
2019-04-26T16:03:07.526Z,11.30
2019-04-26T16:05:40.745Z,11.30
2019-04-26T16:08:14.093Z,11.30
2019-04-26T16:10:45.952Z,11.40
2019-04-26T16:13:24.474Z,11.50
2019-04-26T16:15:54.690Z,11.60
2019-04-26T16:18:44.112Z,11.60
2019-04-26T16:21:17.980Z,11.60
2019-04-26T16:23:53.659Z,11.60
2019-04-26T16:26:18.896Z,11.60
2019-04-26T16:28:51.753Z,11.40
2019-04-26T16:31:25.805Z,11.40
2019-04-26T16:34:11.777Z,11.40
2019-04-26T16:36:45.232Z,11.30
2019-04-26T16:39:23.306Z,11.30
2019-04-26T16:41:59.280Z,11.30
2019-04-26T16:44:36.665Z,11.30
2019-04-26T16:47:06.078Z,11.30
2019-04-26T16:49:46.229Z,11.30
2019-04-26T16:52:43.549Z,11.20
2019-04-26T16:55:21.402Z,11.10
2019-04-26T16:57:57.959Z,11.10
2019-04-26T17:00:48.248Z,11.10
2019-04-26T17:03:07.535Z,11.20
2019-04-26T17:05:47.547Z,11.20
2019-04-26T17:08:10.389Z,11.30
2019-04-26T17:10:46.970Z,11.30
2019-04-26T17:13:14.792Z,11.20
2019-04-26T17:15:43.345Z,11.20
2019-04-26T17:18:19.336Z,11.20
2019-04-26T17:20:48.177Z,11.20
2019-04-26T17:23:36.177Z,11.20
2019-04-26T17:28:56.214Z,11.10
2019-04-26T17:31:26.519Z,11.10
2019-04-26T17:33:57.375Z,11.10
2019-04-26T17:36:28.925Z,11.10
2019-04-26T17:41:28.480Z,11.10
2019-04-26T17:44:10.524Z,11.10
2019-04-26T17:46:37.206Z,11.10
2019-04-26T17:51:46.568Z,11.00
2019-04-26T17:54:40.749Z,11.00
2019-04-26T17:56:57.562Z,11.00
2019-04-26T17:59:33.485Z,11.00
2019-04-26T18:02:00.774Z,11.00
2019-04-26T18:04:35.926Z,11.10
2019-04-26T18:07:03.714Z,11.10
2019-04-26T18:09:45.802Z,11.00
2019-04-26T18:12:03.653Z,11.10
2019-04-26T18:14:35.400Z,11.10
2019-04-26T18:17:05.731Z,11.00
2019-04-26T18:19:44.387Z,11.00
2019-04-26T18:22:17.940Z,11.00
2019-04-26T18:24:50.630Z,10.90
2019-04-26T18:27:23.992Z,10.90
2019-04-26T18:29:59.844Z,10.90
2019-04-26T18:32:33.947Z,10.90
2019-04-26T18:35:01.287Z,10.90
2019-04-26T18:37:31.402Z,10.80
2019-04-26T18:40:04.580Z,10.80
2019-04-26T18:42:37.463Z,10.90
2019-04-26T18:45:30.039Z,10.80
2019-04-26T18:48:01.111Z,10.80
2019-04-26T18:50:36.508Z,10.80
2019-04-26T18:53:14.000Z,10.80
2019-04-26T18:55:47.611Z,10.70
2019-04-26T18:58:16.617Z,10.70
2019-04-26T19:00:53.116Z,10.60
2019-04-26T19:03:19.799Z,10.60
2019-04-26T19:05:50.197Z,10.50
2019-04-26T19:08:20.889Z,10.40
2019-04-26T19:11:00.451Z,10.40
2019-04-26T19:13:24.484Z,10.30
2019-04-26T19:16:03.032Z,10.20
2019-04-26T19:18:45.366Z,10.20
2019-04-26T19:21:28.022Z,10.20
2019-04-26T19:24:07.473Z,10.20
2019-04-26T19:26:34.982Z,10.20
2019-04-26T19:29:18.175Z,10.20
2019-04-26T19:32:06.269Z,10.20
2019-04-26T19:34:38.104Z,10.20
2019-04-26T19:37:09.965Z,10.20
2019-04-26T19:39:40.164Z,10.20
2019-04-26T19:42:08.886Z,10.20
2019-04-26T19:44:39.195Z,10.20
2019-04-26T19:47:12.334Z,10.20
2019-04-26T19:56:06.898Z,10.20
2019-04-26T19:58:42.004Z,10.20
2019-04-26T20:01:12.259Z,10.20
2019-04-26T20:03:47.375Z,10.10
2019-04-26T20:06:18.734Z,10.20
2019-04-26T20:08:49.708Z,10.20
2019-04-26T20:14:12.315Z,10.10
2019-04-26T20:16:43.626Z,10.10
2019-04-26T20:19:17.860Z,10.10
2019-04-26T20:21:49.749Z,10.10
2019-04-26T20:24:21.566Z,10.10
2019-04-26T20:26:52.402Z,10.10
2019-04-26T20:29:23.194Z,10.10
2019-04-26T20:34:37.303Z,10.00
2019-04-26T20:37:07.990Z,10.00
2019-04-26T20:39:37.010Z,10.00
2019-04-26T20:42:07.534Z,10.00
2019-04-26T20:44:50.248Z,10.00
2019-04-26T20:47:14.306Z,10.00
2019-04-26T20:49:49.598Z,10.00
2019-04-26T20:52:16.488Z,10.00
2019-04-26T20:54:51.209Z,10.00
2019-04-26T20:57:26.613Z,10.00
2019-04-26T21:00:03.317Z,10.00
2019-04-26T21:02:34.758Z,10.00
2019-04-26T21:05:06.174Z,10.00
2019-04-26T21:07:35.634Z,10.00
2019-04-26T21:10:06.240Z,9.90
2019-04-26T21:12:34.902Z,9.90
2019-04-26T21:15:04.628Z,10.00
2019-04-26T21:17:41.630Z,10.00
2019-04-26T21:20:13.050Z,9.90
2019-04-26T21:22:46.198Z,9.90
2019-04-26T21:25:16.411Z,9.90
2019-04-26T21:27:46.639Z,9.80
2019-04-26T21:30:33.583Z,9.80
2019-04-26T21:33:08.024Z,9.80
2019-04-26T21:36:01.942Z,9.80
2019-04-26T21:38:37.119Z,9.80
2019-04-26T21:41:14.511Z,9.70
2019-04-26T21:43:43.902Z,9.70
2019-04-26T21:46:19.235Z,9.60
2019-04-26T21:48:53.514Z,9.60
2019-04-26T21:51:34.102Z,9.60
2019-04-26T21:54:04.473Z,9.60
2019-04-26T21:56:42.743Z,9.60
2019-04-26T21:59:11.706Z,9.60
2019-04-26T22:01:40.829Z,9.50
2019-04-26T22:04:10.953Z,9.60
2019-04-26T22:06:44.103Z,9.60
2019-04-26T22:09:40.484Z,9.60
2019-04-26T22:12:13.436Z,9.50
2019-04-26T22:14:50.487Z,9.50
2019-04-26T22:17:29.042Z,9.50
2019-04-26T22:20:18.622Z,9.50
2019-04-26T22:25:33.240Z,9.50
2019-04-26T22:28:03.439Z,9.50
2019-04-26T22:30:42.308Z,9.50
2019-04-26T22:33:13.690Z,9.50
2019-04-26T22:35:45.219Z,9.50
2019-04-26T22:38:37.733Z,9.50
2019-04-26T22:41:13.108Z,9.40
2019-04-26T22:44:06.343Z,9.40
2019-04-26T22:47:03.489Z,9.40
2019-04-26T22:49:35.025Z,9.40
2019-04-26T22:52:01.043Z,9.30
2019-04-26T22:54:31.322Z,9.30
2019-04-26T22:57:08.198Z,9.30
2019-04-26T22:59:38.241Z,9.30
2019-04-26T23:02:18.210Z,9.30
2019-04-26T23:04:45.303Z,9.30
2019-04-26T23:07:26.944Z,9.30
2019-04-26T23:10:04.229Z,9.20
2019-04-26T23:12:53.982Z,9.20
2019-04-26T23:15:33.510Z,9.20
2019-04-26T23:18:20.074Z,9.20
2019-04-26T23:20:50.288Z,9.10
2019-04-26T23:23:23.612Z,9.10
2019-04-26T23:26:02.318Z,9.00
2019-04-26T23:28:37.034Z,9.00
2019-04-26T23:31:08.323Z,9.00
2019-04-26T23:33:37.905Z,8.90
2019-04-26T23:36:10.875Z,8.90
2019-04-26T23:38:41.263Z,8.90
2019-04-26T23:41:15.736Z,8.80
2019-04-26T23:43:54.338Z,8.80
2019-04-26T23:46:25.958Z,8.80
2019-04-26T23:48:53.859Z,8.80
2019-04-26T23:51:33.958Z,8.80
2019-04-26T23:53:57.849Z,8.80
2019-04-26T23:56:28.207Z,8.80
2019-04-26T23:58:58.614Z,8.80
